createdAt,value
2019-02-19T00:01:31.346Z,55.50
2019-02-19T00:04:02.544Z,51.53
2019-02-19T00:06:34.159Z,55.43
2019-02-19T00:09:07.161Z,50.63
2019-02-19T00:11:38.504Z,51.75
2019-02-19T00:14:10.024Z,54.88
2019-02-19T00:16:41.464Z,51.90
2019-02-19T00:19:12.744Z,48.70
2019-02-19T00:21:44.579Z,52.43
2019-02-19T00:24:16.182Z,49.60
2019-02-19T00:26:47.847Z,47.70
2019-02-19T00:29:19.454Z,46.40
2019-02-19T00:31:51.814Z,50.88
2019-02-19T00:34:23.158Z,49.67
2019-02-19T00:36:54.445Z,49.95
2019-02-19T00:39:26.086Z,45.75
2019-02-19T00:41:57.732Z,44.88
2019-02-19T00:44:29.325Z,42.80
2019-02-19T00:47:01.014Z,49.93
2019-02-19T00:49:32.612Z,43.05
2019-02-19T00:52:04.147Z,47.85
2019-02-19T00:54:35.624Z,51.08
2019-02-19T00:57:07.259Z,47.80
2019-02-19T00:59:38.954Z,44.75
2019-02-19T01:02:10.300Z,42.33
2019-02-19T01:04:41.815Z,42.90
2019-02-19T01:07:13.494Z,40.67
2019-02-19T01:09:44.940Z,39.13
2019-02-19T01:12:16.189Z,41.53
2019-02-19T01:14:47.868Z,41.88
2019-02-19T01:17:19.316Z,41.02
2019-02-19T01:19:51.050Z,41.37
2019-02-19T01:22:22.462Z,47.70
2019-02-19T01:24:54.105Z,39.40
2019-02-19T01:27:25.848Z,42.25
2019-02-19T01:29:57.307Z,40.43
2019-02-19T01:32:28.998Z,36.53
2019-02-19T01:35:00.538Z,36.23
2019-02-19T01:37:32.018Z,47.13
2019-02-19T01:40:03.687Z,37.28
2019-02-19T01:42:36.240Z,37.08
2019-02-19T01:45:09.024Z,35.95
2019-02-19T01:47:40.583Z,40.83
2019-02-19T01:50:12.394Z,39.00
2019-02-19T01:52:43.898Z,38.48
2019-02-19T01:55:15.490Z,37.88
2019-02-19T01:57:47.067Z,35.58
2019-02-19T02:00:18.628Z,40.08
2019-02-19T02:02:50.212Z,37.58
2019-02-19T02:05:21.788Z,36.53
2019-02-19T02:07:53.281Z,41.05
2019-02-19T02:10:24.888Z,35.73
2019-02-19T02:12:56.426Z,39.55
2019-02-19T02:15:27.893Z,35.40
2019-02-19T02:17:59.356Z,39.85
2019-02-19T02:20:31.933Z,36.23
2019-02-19T02:23:03.571Z,39.63
2019-02-19T02:25:35.130Z,41.23
2019-02-19T02:28:07.069Z,43.50
2019-02-19T02:30:38.638Z,51.80
2019-02-19T02:33:10.225Z,80.32
2019-02-19T02:35:41.597Z,72.37
2019-02-19T02:38:12.902Z,69.22
2019-02-19T02:40:44.144Z,69.67
2019-02-19T02:43:15.557Z,67.05
2019-02-19T02:45:53.510Z,60.30
2019-02-19T02:48:20.582Z,55.60
2019-02-19T02:50:52.148Z,65.47
2019-02-19T02:53:23.738Z,62.55
2019-02-19T02:55:55.450Z,53.75
2019-02-19T02:58:27.078Z,57.45
2019-02-19T03:00:58.639Z,48.28
2019-02-19T03:03:30.045Z,52.40
2019-02-19T03:06:14.415Z,55.40
2019-02-19T03:08:45.847Z,46.88
2019-02-19T03:11:17.483Z,51.60
2019-02-19T03:13:49.054Z,50.75
2019-02-19T03:16:20.802Z,53.30
2019-02-19T03:18:52.224Z,53.15
2019-02-19T03:21:23.760Z,49.67
2019-02-19T03:23:55.365Z,51.90
2019-02-19T03:26:26.859Z,56.15
2019-02-19T03:28:58.349Z,55.12
2019-02-19T03:31:29.577Z,52.78
2019-02-19T03:34:00.801Z,51.08
2019-02-19T03:36:32.057Z,53.87
2019-02-19T03:39:04.670Z,48.92
2019-02-19T03:41:37.005Z,50.12
2019-02-19T03:44:08.523Z,49.30
2019-02-19T03:46:40.277Z,51.05
2019-02-19T03:49:11.814Z,54.05
2019-02-19T03:51:43.458Z,52.98
2019-02-19T03:54:14.900Z,47.50
2019-02-19T03:56:46.568Z,48.05
2019-02-19T03:59:18.137Z,46.95
2019-02-19T04:01:49.644Z,47.73
2019-02-19T04:04:21.018Z,46.83
2019-02-19T04:06:52.545Z,50.45
2019-02-19T04:09:23.868Z,53.05
2019-02-19T04:11:55.209Z,51.35
2019-02-19T04:14:26.412Z,50.85
2019-02-19T04:16:58.885Z,58.23
2019-02-19T04:19:30.488Z,57.62
2019-02-19T04:22:01.690Z,58.25
2019-02-19T04:24:33.357Z,53.63
2019-02-19T04:27:04.967Z,51.37
2019-02-19T04:29:36.354Z,48.73
2019-02-19T04:32:07.973Z,54.27
2019-02-19T04:34:39.591Z,50.88
2019-02-19T04:37:11.252Z,53.63
2019-02-19T04:39:42.783Z,52.30
2019-02-19T04:42:14.435Z,51.53
2019-02-19T04:44:45.932Z,59.93
2019-02-19T04:47:17.599Z,50.38
2019-02-19T04:49:49.251Z,54.38
2019-02-19T04:52:20.812Z,59.50
2019-02-19T04:54:52.410Z,53.87
2019-02-19T04:57:24.012Z,57.27
2019-02-19T04:59:55.375Z,61.25
2019-02-19T05:02:27.018Z,62.83
2019-02-19T05:04:58.522Z,65.32
2019-02-19T05:07:29.942Z,59.20
2019-02-19T05:10:01.357Z,59.08
2019-02-19T05:12:32.876Z,58.87
2019-02-19T05:15:04.644Z,69.75
2019-02-19T05:17:36.346Z,63.23
2019-02-19T05:20:08.352Z,60.23
2019-02-19T05:22:39.680Z,68.55
2019-02-19T05:25:11.498Z,58.45
2019-02-19T05:27:42.998Z,63.73
2019-02-19T05:30:14.814Z,63.65
2019-02-19T05:32:46.424Z,65.28
2019-02-19T05:35:18.028Z,64.60
2019-02-19T05:37:49.579Z,78.02
2019-02-19T05:40:21.373Z,97.72
2019-02-19T05:42:52.645Z,83.90
2019-02-19T05:45:24.051Z,90.15
2019-02-19T05:47:55.584Z,76.53
2019-02-19T05:50:27.082Z,87.90
2019-02-19T05:52:58.831Z,74.58
2019-02-19T05:55:30.574Z,71.45
2019-02-19T05:58:02.007Z,69.12
2019-02-19T06:00:33.660Z,74.10
2019-02-19T06:03:05.340Z,69.00
2019-02-19T06:05:37.139Z,65.45
2019-02-19T06:08:08.573Z,65.10
2019-02-19T06:10:40.183Z,68.80
2019-02-19T06:13:11.727Z,69.07
2019-02-19T06:15:42.939Z,65.20
2019-02-19T06:18:14.905Z,65.28
2019-02-19T06:20:47.482Z,71.53
2019-02-19T06:23:19.072Z,64.45
2019-02-19T06:25:50.634Z,67.22
2019-02-19T06:28:22.263Z,62.20
2019-02-19T06:30:53.634Z,69.87
2019-02-19T06:33:25.280Z,61.75
2019-02-19T06:35:56.689Z,65.08
2019-02-19T06:38:28.077Z,65.45
2019-02-19T06:40:59.511Z,69.22
2019-02-19T06:43:31.014Z,68.05
2019-02-19T06:46:02.706Z,66.40
2019-02-19T06:48:34.173Z,71.67
2019-02-19T06:51:05.879Z,67.22
2019-02-19T06:53:37.436Z,62.58
2019-02-19T06:56:09.367Z,89.58
2019-02-19T06:58:40.636Z,99.17
2019-02-19T07:01:12.270Z,104.90
2019-02-19T07:04:01.540Z,109.63
2019-02-19T07:06:32.883Z,106.10
2019-02-19T07:09:05.015Z,109.65
2019-02-19T07:11:36.651Z,105.03
2019-02-19T07:14:08.197Z,91.05
2019-02-19T07:16:39.403Z,93.35
2019-02-19T07:19:10.672Z,81.90
2019-02-19T07:21:42.131Z,71.95
2019-02-19T07:24:13.752Z,72.67
2019-02-19T07:26:45.534Z,77.90
2019-02-19T07:29:16.948Z,76.95
2019-02-19T07:31:48.343Z,79.65
2019-02-19T07:34:19.970Z,71.55
2019-02-19T07:36:51.504Z,76.53
2019-02-19T07:39:22.887Z,78.78
2019-02-19T07:41:54.097Z,80.90
2019-02-19T07:44:25.467Z,79.30
2019-02-19T07:46:56.718Z,78.45
2019-02-19T07:49:28.464Z,77.25
2019-02-19T07:52:00.054Z,85.65
2019-02-19T07:54:31.349Z,81.82
2019-02-19T07:57:02.569Z,74.72
2019-02-19T07:59:34.178Z,78.62
2019-02-19T08:02:05.580Z,78.65
2019-02-19T08:04:36.822Z,71.72
2019-02-19T08:07:08.207Z,69.92
2019-02-19T08:09:39.670Z,73.05
2019-02-19T08:12:11.042Z,65.15
2019-02-19T08:14:42.306Z,79.10
2019-02-19T08:17:14.184Z,75.40
2019-02-19T08:19:45.605Z,75.12
2019-02-19T08:22:17.587Z,71.12
2019-02-19T08:24:49.119Z,68.78
2019-02-19T08:27:20.525Z,74.90
2019-02-19T08:29:52.311Z,70.80
2019-02-19T08:32:23.835Z,73.05
2019-02-19T08:34:55.315Z,76.67
2019-02-19T08:37:26.558Z,68.80
2019-02-19T08:39:58.150Z,63.28
2019-02-19T08:42:29.640Z,69.27
2019-02-19T08:45:01.134Z,63.02
2019-02-19T08:47:32.563Z,68.95
2019-02-19T08:50:04.139Z,60.78
2019-02-19T08:52:35.820Z,65.30
2019-02-19T08:55:07.503Z,66.70
2019-02-19T08:57:39.174Z,61.35
2019-02-19T09:00:11.438Z,61.75
2019-02-19T09:02:42.849Z,58.20
2019-02-19T09:05:14.176Z,60.52
2019-02-19T09:07:45.590Z,60.87
2019-02-19T09:10:16.920Z,59.90
2019-02-19T09:12:48.187Z,60.67
2019-02-19T09:15:19.716Z,60.95
2019-02-19T09:17:52.189Z,54.20
2019-02-19T09:20:23.711Z,61.23
2019-02-19T09:22:54.918Z,65.30
2019-02-19T09:25:26.210Z,62.67
2019-02-19T09:27:57.447Z,66.43
2019-02-19T09:30:28.869Z,58.03
2019-02-19T09:33:00.238Z,59.37
2019-02-19T09:35:31.656Z,64.80
2019-02-19T09:38:02.903Z,58.83
2019-02-19T09:40:34.033Z,66.87
2019-02-19T09:43:05.513Z,61.27
2019-02-19T09:45:36.834Z,59.10
2019-02-19T09:48:08.102Z,59.53
2019-02-19T09:50:39.414Z,69.43
2019-02-19T09:53:10.781Z,77.70
2019-02-19T09:55:43.794Z,55.97
2019-02-19T09:58:15.304Z,52.37
2019-02-19T10:00:46.747Z,55.60
2019-02-19T10:03:18.042Z,54.67
2019-02-19T10:05:49.378Z,60.13
2019-02-19T10:08:20.535Z,50.43
2019-02-19T10:10:51.981Z,51.77
2019-02-19T10:13:25.128Z,48.17
2019-02-19T10:15:56.651Z,47.37
2019-02-19T10:18:27.761Z,56.13
2019-02-19T10:20:59.796Z,49.93
2019-02-19T10:23:31.201Z,47.17
2019-02-19T10:26:04.007Z,46.57
2019-02-19T10:28:35.213Z,45.93
2019-02-19T10:31:06.501Z,43.80
2019-02-19T10:33:37.612Z,42.03
2019-02-19T10:36:08.752Z,46.73
2019-02-19T10:38:39.739Z,42.80
2019-02-19T10:41:10.854Z,45.67
2019-02-19T10:43:41.974Z,44.53
2019-02-19T10:46:13.185Z,44.97
2019-02-19T10:48:44.351Z,44.37
2019-02-19T10:51:15.564Z,49.80
2019-02-19T10:53:46.719Z,48.03
2019-02-19T10:56:17.897Z,35.30
2019-02-19T10:58:49.062Z,46.07
2019-02-19T11:01:20.118Z,41.20
2019-02-19T11:03:52.294Z,44.40
2019-02-19T11:06:23.427Z,40.03
2019-02-19T11:08:54.555Z,33.63
2019-02-19T11:11:25.940Z,38.00
2019-02-19T11:13:57.358Z,28.70
2019-02-19T11:16:28.388Z,35.60
2019-02-19T11:18:59.476Z,36.73
2019-02-19T11:21:30.520Z,33.03
2019-02-19T11:24:01.821Z,29.23
2019-02-19T11:26:32.755Z,21.50
2019-02-19T11:29:03.789Z,20.07
2019-02-19T11:31:34.879Z,28.57
2019-02-19T11:34:06.047Z,26.13
2019-02-19T11:36:37.512Z,26.33
2019-02-19T11:39:10.015Z,25.37
2019-02-19T11:41:41.308Z,26.10
2019-02-19T11:44:12.503Z,24.37
2019-02-19T11:46:43.977Z,31.67
2019-02-19T11:49:15.031Z,29.47
2019-02-19T11:51:46.245Z,24.77
2019-02-19T11:54:17.393Z,22.33
2019-02-19T11:56:48.835Z,22.77
2019-02-19T11:59:20.257Z,27.47
2019-02-19T12:01:51.774Z,20.43
2019-02-19T12:04:23.047Z,24.47
2019-02-19T12:06:54.135Z,26.83
2019-02-19T12:09:25.221Z,24.10
2019-02-19T12:11:56.210Z,29.63
2019-02-19T12:14:27.246Z,25.33
2019-02-19T12:16:58.332Z,28.80
2019-02-19T12:19:29.692Z,20.90
2019-02-19T12:22:00.694Z,22.27
2019-02-19T12:24:31.715Z,22.13
2019-02-19T12:27:02.942Z,25.33
2019-02-19T12:29:34.265Z,26.43
2019-02-19T12:32:05.196Z,27.73
2019-02-19T12:34:36.565Z,26.87
2019-02-19T12:37:07.798Z,20.60
2019-02-19T12:39:39.073Z,23.43
2019-02-19T12:42:10.431Z,24.17
2019-02-19T12:44:41.723Z,18.87
2019-02-19T12:47:13.110Z,19.23
2019-02-19T12:49:44.424Z,19.10
2019-02-19T12:52:15.656Z,21.67
2019-02-19T12:54:46.947Z,21.33
2019-02-19T12:57:18.405Z,24.67
2019-02-19T12:59:56.383Z,18.50
2019-02-19T13:02:22.430Z,21.47
2019-02-19T13:04:53.680Z,17.37
2019-02-19T13:07:24.933Z,17.97
2019-02-19T13:09:56.254Z,17.93
2019-02-19T13:12:27.856Z,17.87
2019-02-19T13:14:58.868Z,17.87
2019-02-19T13:17:29.899Z,21.20
2019-02-19T13:20:00.850Z,21.53
2019-02-19T13:22:33.015Z,19.13
2019-02-19T13:25:04.237Z,18.97
2019-02-19T13:27:35.401Z,15.87
2019-02-19T13:30:08.054Z,20.50
2019-02-19T13:32:39.299Z,16.93
2019-02-19T13:35:11.143Z,16.33
2019-02-19T13:37:43.261Z,18.17
2019-02-19T13:40:14.798Z,13.30
2019-02-19T13:42:46.074Z,14.50
2019-02-19T13:45:17.569Z,15.13
2019-02-19T13:47:49.095Z,14.83
2019-02-19T13:50:21.012Z,16.00
2019-02-19T13:53:09.829Z,15.23
2019-02-19T13:55:44.045Z,15.67
2019-02-19T13:58:15.589Z,15.03
2019-02-19T14:00:47.600Z,17.03
2019-02-19T14:03:19.166Z,15.77
2019-02-19T14:05:50.310Z,16.77
2019-02-19T14:08:21.567Z,18.00
2019-02-19T14:10:52.900Z,15.67
2019-02-19T14:13:24.292Z,14.77
2019-02-19T14:16:15.353Z,15.50
2019-02-19T14:19:05.278Z,23.83
2019-02-19T14:21:56.621Z,14.70
2019-02-19T14:24:55.631Z,13.63
2019-02-19T14:27:44.482Z,17.50
2019-02-19T14:30:37.320Z,18.17
2019-02-19T14:33:48.842Z,15.60
2019-02-19T14:36:52.938Z,13.07
2019-02-19T14:39:48.960Z,13.70
2019-02-19T14:42:44.875Z,10.87
2019-02-19T14:45:30.878Z,11.67
2019-02-19T14:48:19.418Z,15.00
2019-02-19T14:51:15.955Z,16.37
2019-02-19T14:54:12.226Z,14.73
2019-02-19T14:57:08.114Z,12.47
2019-02-19T15:00:00.977Z,13.17
2019-02-19T15:03:00.165Z,13.70
2019-02-19T15:05:48.823Z,14.57
2019-02-19T15:08:42.082Z,12.30
2019-02-19T15:11:34.734Z,12.60
2019-02-19T15:14:27.897Z,12.43
2019-02-19T15:17:20.671Z,10.03
2019-02-19T15:20:19.448Z,14.47
2019-02-19T15:23:18.741Z,13.27
2019-02-19T15:26:13.019Z,13.00
2019-02-19T15:29:02.604Z,17.30
2019-02-19T15:31:45.573Z,12.03
2019-02-19T15:34:44.628Z,13.90
2019-02-19T15:37:33.277Z,13.53
2019-02-19T15:40:26.073Z,14.90
2019-02-19T15:43:25.438Z,13.97
2019-02-19T15:46:21.449Z,15.47
2019-02-19T15:49:14.516Z,15.80
2019-02-19T15:52:07.049Z,16.47
2019-02-19T15:54:47.808Z,13.57
2019-02-19T15:57:31.708Z,15.70
2019-02-19T16:00:20.545Z,16.13
2019-02-19T16:03:00.858Z,17.50
2019-02-19T16:05:51.151Z,21.97
2019-02-19T16:08:41.366Z,17.03
2019-02-19T16:11:34.520Z,25.10
2019-02-19T16:14:24.892Z,43.80
2019-02-19T16:17:08.366Z,49.60
2019-02-19T16:19:58.659Z,43.80
2019-02-19T16:22:51.659Z,42.93
2019-02-19T16:25:40.264Z,31.77
2019-02-19T16:28:45.293Z,45.80
2019-02-19T16:31:53.580Z,34.97
2019-02-19T16:34:47.479Z,30.03
2019-02-19T16:37:43.402Z,39.70
2019-02-19T16:40:21.022Z,56.87
2019-02-19T16:43:11.091Z,64.97
2019-02-19T16:45:59.824Z,60.53
2019-02-19T16:48:39.822Z,56.30
2019-02-19T16:51:21.191Z,51.57
2019-02-19T16:54:23.654Z,59.63
2019-02-19T16:57:07.299Z,70.70
2019-02-19T16:59:49.438Z,79.60
2019-02-19T17:02:30.238Z,80.80
2019-02-19T17:05:19.940Z,89.27
2019-02-19T17:07:57.920Z,84.33
2019-02-19T17:10:44.848Z,98.80
2019-02-19T17:13:37.809Z,72.30
2019-02-19T17:16:27.579Z,80.27
2019-02-19T17:19:20.794Z,95.43
2019-02-19T17:22:06.949Z,92.33
2019-02-19T17:25:02.765Z,100.30
2019-02-19T17:27:47.219Z,83.67
2019-02-19T17:30:37.330Z,81.77
2019-02-19T17:33:33.570Z,75.40
2019-02-19T17:36:22.758Z,74.83
2019-02-19T17:39:12.927Z,78.60
2019-02-19T17:41:49.481Z,78.13
2019-02-19T17:44:33.518Z,68.90
2019-02-19T17:47:26.672Z,69.90
2019-02-19T17:50:16.862Z,56.30
2019-02-19T17:53:05.541Z,58.42
2019-02-19T17:56:01.594Z,57.67
2019-02-19T17:58:47.003Z,57.57
2019-02-19T18:01:42.946Z,53.53
2019-02-19T18:04:21.923Z,56.70
2019-02-19T18:07:10.346Z,46.80
2019-02-19T18:10:10.678Z,40.30
2019-02-19T18:12:59.538Z,43.30
2019-02-19T18:16:01.887Z,46.63
2019-02-19T18:18:50.052Z,39.07
2019-02-19T18:21:21.340Z,42.97
2019-02-19T18:23:52.809Z,42.90
2019-02-19T18:26:24.039Z,42.50
2019-02-19T18:28:55.254Z,44.30
2019-02-19T18:31:26.246Z,38.53
2019-02-19T18:33:57.972Z,38.02
2019-02-19T18:36:29.588Z,39.08
2019-02-19T18:39:00.904Z,37.23
2019-02-19T18:41:33.949Z,36.80
2019-02-19T18:44:05.699Z,34.33
2019-02-19T18:46:37.301Z,32.00
2019-02-19T18:49:08.999Z,35.58
2019-02-19T18:51:40.250Z,30.35
2019-02-19T18:54:12.818Z,34.63
2019-02-19T18:56:44.512Z,31.75
2019-02-19T18:59:16.066Z,32.20
2019-02-19T19:01:47.532Z,29.10
2019-02-19T19:04:18.908Z,30.70
2019-02-19T19:06:50.351Z,29.75
2019-02-19T19:09:21.567Z,31.33
2019-02-19T19:11:53.190Z,30.72
2019-02-19T19:14:24.608Z,32.63
2019-02-19T19:16:55.966Z,32.58
2019-02-19T19:19:27.179Z,33.58
2019-02-19T19:21:58.539Z,34.67
2019-02-19T19:24:29.911Z,28.30
2019-02-19T19:27:01.208Z,29.70
2019-02-19T19:29:32.422Z,29.95
2019-02-19T19:32:03.783Z,32.08
2019-02-19T19:34:35.142Z,32.30
2019-02-19T19:37:06.803Z,33.92
2019-02-19T19:39:38.288Z,28.60
2019-02-19T19:42:09.724Z,29.85
2019-02-19T19:44:41.077Z,30.45
2019-02-19T19:47:12.433Z,33.55
2019-02-19T19:49:43.885Z,25.25
2019-02-19T19:52:15.292Z,27.98
2019-02-19T19:54:46.679Z,32.35
2019-02-19T19:57:18.211Z,32.80
2019-02-19T19:59:49.532Z,33.30
2019-02-19T20:02:20.809Z,41.65
2019-02-19T20:04:52.377Z,37.38
2019-02-19T20:07:23.871Z,53.98
2019-02-19T20:09:55.612Z,41.60
2019-02-19T20:12:27.304Z,39.78
2019-02-19T20:14:58.818Z,66.10
2019-02-19T20:17:30.421Z,56.35
2019-02-19T20:20:01.868Z,69.80
2019-02-19T20:22:34.228Z,52.53
2019-02-19T20:25:06.161Z,59.50
2019-02-19T20:27:37.918Z,59.30
2019-02-19T20:30:10.331Z,51.92
2019-02-19T20:32:42.513Z,54.48
2019-02-19T20:35:14.088Z,76.92
2019-02-19T20:37:53.653Z,62.48
2019-02-19T20:40:19.266Z,71.82
2019-02-19T20:42:50.840Z,75.12
2019-02-19T20:45:22.825Z,70.62
2019-02-19T20:47:54.306Z,76.42
2019-02-19T20:50:26.054Z,75.42
2019-02-19T20:52:57.693Z,92.95
2019-02-19T20:55:36.777Z,86.63
2019-02-19T20:58:03.939Z,82.15
2019-02-19T21:00:35.654Z,75.15
2019-02-19T21:03:07.869Z,81.42
2019-02-19T21:05:39.766Z,77.90
2019-02-19T21:08:11.418Z,75.80
2019-02-19T21:10:43.181Z,71.67
2019-02-19T21:13:14.723Z,78.57
2019-02-19T21:15:46.250Z,82.20
2019-02-19T21:18:18.084Z,74.22
2019-02-19T21:20:49.804Z,68.10
2019-02-19T21:23:21.816Z,78.35
2019-02-19T21:25:53.691Z,73.10
2019-02-19T21:28:25.671Z,71.70
2019-02-19T21:30:57.346Z,69.30
2019-02-19T21:33:28.996Z,74.10
2019-02-19T21:36:00.591Z,81.35
2019-02-19T21:38:32.230Z,66.90
2019-02-19T21:41:03.562Z,66.45
2019-02-19T21:43:35.299Z,63.35
2019-02-19T21:46:07.593Z,68.62
2019-02-19T21:48:39.540Z,67.85
2019-02-19T21:51:11.399Z,71.12
2019-02-19T21:53:43.131Z,66.75
2019-02-19T21:56:15.520Z,69.87
2019-02-19T21:58:47.221Z,57.05
2019-02-19T22:01:18.725Z,59.25
2019-02-19T22:03:50.025Z,59.77
2019-02-19T22:06:22.685Z,55.23
2019-02-19T22:08:54.352Z,64.25
2019-02-19T22:11:25.967Z,62.95
2019-02-19T22:13:57.560Z,54.80
2019-02-19T22:16:29.291Z,58.25
2019-02-19T22:19:01.130Z,55.95
2019-02-19T22:21:41.772Z,63.13
2019-02-19T22:24:13.337Z,54.27
2019-02-19T22:26:44.809Z,48.78
2019-02-19T22:29:16.539Z,59.70
2019-02-19T22:31:48.188Z,51.60
2019-02-19T22:34:19.858Z,51.13
2019-02-19T22:36:51.629Z,50.50
2019-02-19T22:39:23.288Z,55.63
2019-02-19T22:41:54.843Z,51.45
2019-02-19T22:44:26.417Z,51.95
2019-02-19T22:46:57.942Z,51.75
2019-02-19T22:49:29.257Z,52.65
2019-02-19T22:52:00.625Z,51.25
2019-02-19T22:54:42.958Z,51.60
2019-02-19T22:57:14.243Z,52.17
2019-02-19T22:59:45.919Z,57.90
2019-02-19T23:02:29.254Z,47.58
2019-02-19T23:05:01.000Z,52.25
2019-02-19T23:07:33.831Z,51.18
2019-02-19T23:10:06.626Z,50.75
2019-02-19T23:12:38.125Z,54.63
2019-02-19T23:15:09.754Z,56.50
2019-02-19T23:17:41.421Z,53.17
2019-02-19T23:20:13.116Z,57.45
2019-02-19T23:22:44.830Z,50.03
2019-02-19T23:25:16.464Z,52.90
2019-02-19T23:27:48.032Z,50.78
2019-02-19T23:30:19.780Z,58.33
2019-02-19T23:32:51.580Z,52.27
2019-02-19T23:35:32.488Z,57.23
2019-02-19T23:38:04.186Z,55.55
2019-02-19T23:40:36.271Z,58.40
2019-02-19T23:43:07.944Z,60.52
2019-02-19T23:45:39.526Z,59.77
2019-02-19T23:48:11.054Z,63.58
2019-02-19T23:50:42.665Z,64.80
2019-02-19T23:53:14.409Z,57.60
2019-02-19T23:55:46.052Z,56.18
2019-02-19T23:58:17.666Z,59.40
